Highland, NY

3:00 PM EDT on August 27, 2014 (GMT -0400)
Danbury Municipal | Change Station
CLOSE
Current Station
Airport
Location: Danbury,
Elevation: 456 ft
Nearby Weather Stations

Elev 456 ft 41.37 °N, 73.48 °W | Updated 1 hour ago

Clear
Clear
86 °F
Feels Like 89 °F
N
6
Wind Variable Wind from Variable

Today
High -- | Low -- °F
--% Chance of Precip.
Yesterday
High -- | Low -- °F
Precip. -- in
6:16 AM 7:37 PM
Waxing Crescent, 4% visible
Pressure 29.95 in
Visibility 10.0 miles
Clouds Clear
Heat Index 89 °F
Dew Point 68 °F
Humidity 55%
Rainfall 0.00 in
Snow Depth Not available.
UV 9 out of 12
Pollen 8.90 out of 12
Air Quality Not available.
Flu Activity Not available.
METAR KDXR 271753Z VRB05KT 10SM CLR 30/20 A2996 RMK AO2 SLP140 T03000200 10300 20206 56024

More Conditions Fewer Conditions

Pressure 29.95 in
Visibility 10.0 miles
Clouds Clear
Heat Index 89 °F
Dew Point 68 °F
Humidity 55%
Rainfall 0.00 in
Snow Depth Not available.
UV 9 out of 12
Pollen 8.90 out of 12
Air Quality Not available.
Flu Activity Not available.
METAR KDXR 271753Z VRB05KT 10SM CLR 30/20 A2996 RMK AO2 SLP140 T03000200 10300 20206 56024

More Conditions Fewer Conditions

Nowcast | as of 2:46 PM EDT on August 27, 2014

A rain shower producing...a brief period of heavy rain...will be near... Linlithgo and Burden dock at 255 PM EDT... Burden at 300 PM EDT... Blue Store and Bingham Mills at 305 PM EDT... Greenport Center at 310 PM EDT... Manorton at 315 PM EDT... Some thunder will be possible with this brief shower as well.

×

10-Day Weather Forecast

Almanac

Astronomy

Aug. 27, 2014 Rise Set
Actual Time 6:16 AM EDT 7:37 PM EDT
Civil Twilight 5:47 AM EDT 8:06 PM EDT
Nautical Twilight 5:13 AM EDT 8:40 PM EDT
Astronomical Twilight 4:36 AM EDT 9:17 PM EDT
Moon 8:12 AM EDT 8:25 PM EDT
Length of Visible Light 14h 18m
Length of Day
13h 20m
Tomorrow will be 2m 38s shorter.
Waxing Crescent, 4% of the Moon is Illuminated
Today
Waxing Crescent
Sep 2
First Quarter
Sep 8
Full
Sep 15
Last Quarter
Sep 24
New

Today's Extremes

State Highs State Lows

Community

WunderPhotos

Upload Photos

1,747,753 photos uploaded!

Nearby

Air Quality

  Air Quality AQ Index Pollutant
Yesterday Good
OZONE
Yesterday Good
PM2.5
Wednesday Moderate
PM2.5
Wednesday Good
OZONE
Thursday Good
OZONE
Thursday Good
PM2.5

Snow Depth

Station Depth Elevation
No new snow has been reported.

Earthquake Activity

City Distance Mag. Time & Date
No recent earthquake activity has been reported nearby.
Minimum magnitude displayed is 2.5.

Coastal Water Temperatures

Place Temperature
No Stations Reporting

Nearby Weather Stations